sensor_id;sensor_type;location;lat;lon;timestamp;P1;durP1;ratioP1;P2;durP2;ratioP2
66607;SDS011;53462;39.616;8.824;2022-09-09T00:00:38;9.52;;;3.10;;
66607;SDS011;53462;39.616;8.824;2022-09-09T00:03:26;8.88;;;2.17;;
66607;SDS011;53462;39.616;8.824;2022-09-09T00:08:34;8.52;;;2.00;;
66607;SDS011;53462;39.616;8.824;2022-09-09T00:11:16;6.20;;;1.70;;
66607;SDS011;53462;39.616;8.824;2022-09-09T00:13:48;11.55;;;2.28;;
66607;SDS011;53462;39.616;8.824;2022-09-09T00:16:19;9.27;;;2.00;;
66607;SDS011;53462;39.616;8.824;2022-09-09T00:21:19;23.38;;;6.88;;
66607;SDS011;53462;39.616;8.824;2022-09-09T00:23:54;15.07;;;4.57;;
66607;SDS011;53462;39.616;8.824;2022-09-09T00:26:22;14.07;;;3.97;;
66607;SDS011;53462;39.616;8.824;2022-09-09T00:31:45;14.73;;;2.40;;
66607;SDS011;53462;39.616;8.824;2022-09-09T00:34:13;11.02;;;2.42;;
66607;SDS011;53462;39.616;8.824;2022-09-09T00:36:43;8.90;;;2.15;;
66607;SDS011;53462;39.616;8.824;2022-09-09T00:50:00;14.20;;;2.03;;
66607;SDS011;53462;39.616;8.824;2022-09-09T00:55:13;11.88;;;2.10;;
66607;SDS011;53462;39.616;8.824;2022-09-09T00:57:46;10.60;;;2.30;;
66607;SDS011;53462;39.616;8.824;2022-09-09T01:00:18;9.98;;;2.20;;
66607;SDS011;53462;39.616;8.824;2022-09-09T01:05:47;9.00;;;2.60;;
66607;SDS011;53462;39.616;8.824;2022-09-09T01:11:26;7.65;;;2.30;;
66607;SDS011;53462;39.616;8.824;2022-09-09T01:14:00;11.23;;;3.28;;
66607;SDS011;53462;39.616;8.824;2022-09-09T01:16:36;8.65;;;2.38;;
66607;SDS011;53462;39.616;8.824;2022-09-09T01:19:02;10.82;;;2.30;;
66607;SDS011;53462;39.616;8.824;2022-09-09T01:21:44;6.32;;;2.35;;
66607;SDS011;53462;39.616;8.824;2022-09-09T01:27:12;10.85;;;3.20;;
66607;SDS011;53462;39.616;8.824;2022-09-09T01:29:41;7.03;;;2.20;;
66607;SDS011;53462;39.616;8.824;2022-09-09T01:35:03;8.45;;;2.40;;
66607;SDS011;53462;39.616;8.824;2022-09-09T01:37:31;8.25;;;2.95;;
66607;SDS011;53462;39.616;8.824;2022-09-09T01:39:57;8.93;;;2.22;;
66607;SDS011;53462;39.616;8.824;2022-09-09T01:42:23;10.05;;;2.20;;
66607;SDS011;53462;39.616;8.824;2022-09-09T01:44:49;9.35;;;2.63;;
66607;SDS011;53462;39.616;8.824;2022-09-09T01:47:15;14.38;;;2.90;;
66607;SDS011;53462;39.616;8.824;2022-09-09T01:50:03;9.05;;;2.42;;
66607;SDS011;53462;39.616;8.824;2022-09-09T01:52:30;8.23;;;2.53;;
66607;SDS011;53462;39.616;8.824;2022-09-09T01:54:59;7.88;;;2.38;;
66607;SDS011;53462;39.616;8.824;2022-09-09T01:57:54;8.18;;;2.75;;
66607;SDS011;53462;39.616;8.824;2022-09-09T02:00:35;6.13;;;2.05;;
66607;SDS011;53462;39.616;8.824;2022-09-09T02:03:20;7.55;;;1.90;;
66607;SDS011;53462;39.616;8.824;2022-09-09T02:09:00;5.15;;;1.92;;
66607;SDS011;53462;39.616;8.824;2022-09-09T02:11:29;7.20;;;1.90;;
66607;SDS011;53462;39.616;8.824;2022-09-09T02:14:10;7.38;;;2.00;;
66607;SDS011;53462;39.616;8.824;2022-09-09T02:16:47;9.60;;;2.25;;
66607;SDS011;53462;39.616;8.824;2022-09-09T02:19:21;12.02;;;6.65;;
66607;SDS011;53462;39.616;8.824;2022-09-09T02:22:08;9.40;;;4.20;;
66607;SDS011;53462;39.616;8.824;2022-09-09T02:24:36;7.47;;;2.85;;
66607;SDS011;53462;39.616;8.824;2022-09-09T02:27:21;10.00;;;2.42;;
66607;SDS011;53462;39.616;8.824;2022-09-09T02:29:48;7.00;;;2.45;;
66607;SDS011;53462;39.616;8.824;2022-09-09T02:32:21;4.18;;;1.95;;
66607;SDS011;53462;39.616;8.824;2022-09-09T02:34:51;6.57;;;2.10;;
66607;SDS011;53462;39.616;8.824;2022-09-09T02:37:23;7.38;;;2.10;;
66607;SDS011;53462;39.616;8.824;2022-09-09T02:39:54;13.05;;;2.00;;
66607;SDS011;53462;39.616;8.824;2022-09-09T02:42:21;6.65;;;1.98;;
66607;SDS011;53462;39.616;8.824;2022-09-09T02:44:50;10.35;;;2.53;;
66607;SDS011;53462;39.616;8.824;2022-09-09T02:47:25;8.05;;;1.70;;
66607;SDS011;53462;39.616;8.824;2022-09-09T02:53:07;7.78;;;2.00;;
66607;SDS011;53462;39.616;8.824;2022-09-09T02:56:04;8.93;;;1.95;;
66607;SDS011;53462;39.616;8.824;2022-09-09T02:58:37;12.02;;;1.90;;
66607;SDS011;53462;39.616;8.824;2022-09-09T03:01:05;7.80;;;2.17;;
66607;SDS011;53462;39.616;8.824;2022-09-09T03:03:31;6.70;;;2.00;;
66607;SDS011;53462;39.616;8.824;2022-09-09T03:06:00;5.80;;;1.67;;
66607;SDS011;53462;39.616;8.824;2022-09-09T03:08:27;8.40;;;1.98;;
66607;SDS011;53462;39.616;8.824;2022-09-09T03:10:54;5.88;;;1.90;;
66607;SDS011;53462;39.616;8.824;2022-09-09T03:13:22;10.65;;;2.45;;
66607;SDS011;53462;39.616;8.824;2022-09-09T03:15:48;9.15;;;1.92;;
66607;SDS011;53462;39.616;8.824;2022-09-09T03:18:17;7.40;;;1.70;;
66607;SDS011;53462;39.616;8.824;2022-09-09T03:20:47;9.23;;;2.08;;
66607;SDS011;53462;39.616;8.824;2022-09-09T03:23:17;7.65;;;1.88;;
66607;SDS011;53462;39.616;8.824;2022-09-09T03:25:48;7.70;;;1.80;;
66607;SDS011;53462;39.616;8.824;2022-09-09T03:30:44;8.18;;;2.10;;
66607;SDS011;53462;39.616;8.824;2022-09-09T03:33:10;5.65;;;1.85;;
66607;SDS011;53462;39.616;8.824;2022-09-09T03:35:37;4.97;;;1.80;;
66607;SDS011;53462;39.616;8.824;2022-09-09T03:38:03;8.10;;;2.20;;
66607;SDS011;53462;39.616;8.824;2022-09-09T03:40:31;8.70;;;2.47;;
66607;SDS011;53462;39.616;8.824;2022-09-09T03:42:57;8.40;;;2.00;;
66607;SDS011;53462;39.616;8.824;2022-09-09T03:45:24;7.13;;;1.92;;
66607;SDS011;53462;39.616;8.824;2022-09-09T03:47:50;7.57;;;1.73;;
66607;SDS011;53462;39.616;8.824;2022-09-09T03:50:16;4.10;;;2.08;;
66607;SDS011;53462;39.616;8.824;2022-09-09T03:52:45;6.65;;;2.08;;
66607;SDS011;53462;39.616;8.824;2022-09-09T03:55:19;5.68;;;2.00;;
66607;SDS011;53462;39.616;8.824;2022-09-09T03:57:45;5.30;;;1.85;;
66607;SDS011;53462;39.616;8.824;2022-09-09T04:00:12;6.03;;;1.63;;
66607;SDS011;53462;39.616;8.824;2022-09-09T04:02:49;8.15;;;2.20;;
66607;SDS011;53462;39.616;8.824;2022-09-09T04:05:16;5.00;;;1.88;;
66607;SDS011;53462;39.616;8.824;2022-09-09T04:07:45;9.57;;;2.42;;
66607;SDS011;53462;39.616;8.824;2022-09-09T04:10:11;7.85;;;1.70;;
66607;SDS011;53462;39.616;8.824;2022-09-09T04:12:39;4.32;;;1.75;;
66607;SDS011;53462;39.616;8.824;2022-09-09T04:15:05;7.28;;;2.00;;
66607;SDS011;53462;39.616;8.824;2022-09-09T04:17:33;5.63;;;1.80;;
66607;SDS011;53462;39.616;8.824;2022-09-09T04:19:59;8.40;;;2.72;;
66607;SDS011;53462;39.616;8.824;2022-09-09T04:22:25;9.13;;;2.38;;
66607;SDS011;53462;39.616;8.824;2022-09-09T04:24:52;8.20;;;2.10;;
66607;SDS011;53462;39.616;8.824;2022-09-09T04:27:19;6.30;;;1.88;;
66607;SDS011;53462;39.616;8.824;2022-09-09T04:29:45;8.32;;;2.38;;
66607;SDS011;53462;39.616;8.824;2022-09-09T04:32:12;8.07;;;2.08;;
66607;SDS011;53462;39.616;8.824;2022-09-09T04:34:38;7.28;;;2.17;;
66607;SDS011;53462;39.616;8.824;2022-09-09T04:37:06;7.88;;;2.08;;
66607;SDS011;53462;39.616;8.824;2022-09-09T04:39:32;7.70;;;2.13;;
66607;SDS011;53462;39.616;8.824;2022-09-09T04:41:59;6.28;;;1.77;;
66607;SDS011;53462;39.616;8.824;2022-09-09T04:44:25;4.13;;;1.77;;
66607;SDS011;53462;39.616;8.824;2022-09-09T04:46:52;7.55;;;1.73;;
66607;SDS011;53462;39.616;8.824;2022-09-09T04:49:18;7.68;;;2.00;;
66607;SDS011;53462;39.616;8.824;2022-09-09T04:51:44;3.97;;;1.88;;
66607;SDS011;53462;39.616;8.824;2022-09-09T04:54:12;6.05;;;1.83;;
66607;SDS011;53462;39.616;8.824;2022-09-09T04:56:40;10.10;;;2.50;;
66607;SDS011;53462;39.616;8.824;2022-09-09T04:59:07;5.38;;;2.00;;
66607;SDS011;53462;39.616;8.824;2022-09-09T05:01:41;10.20;;;2.03;;
66607;SDS011;53462;39.616;8.824;2022-09-09T05:04:07;5.43;;;1.70;;
66607;SDS011;53462;39.616;8.824;2022-09-09T05:06:34;5.97;;;1.73;;
66607;SDS011;53462;39.616;8.824;2022-09-09T05:09:02;6.38;;;1.95;;
66607;SDS011;53462;39.616;8.824;2022-09-09T05:11:29;4.00;;;1.90;;
66607;SDS011;53462;39.616;8.824;2022-09-09T05:14:15;8.20;;;1.83;;
66607;SDS011;53462;39.616;8.824;2022-09-09T05:16:44;9.20;;;2.63;;
66607;SDS011;53462;39.616;8.824;2022-09-09T05:19:10;4.90;;;1.80;;
66607;SDS011;53462;39.616;8.824;2022-09-09T05:21:46;4.68;;;1.90;;
66607;SDS011;53462;39.616;8.824;2022-09-09T05:24:14;7.03;;;2.00;;
66607;SDS011;53462;39.616;8.824;2022-09-09T05:26:41;8.25;;;2.00;;
66607;SDS011;53462;39.616;8.824;2022-09-09T05:29:08;8.90;;;1.90;;
66607;SDS011;53462;39.616;8.824;2022-09-09T05:31:34;7.07;;;1.98;;
66607;SDS011;53462;39.616;8.824;2022-09-09T05:34:04;9.45;;;2.45;;
66607;SDS011;53462;39.616;8.824;2022-09-09T05:36:30;10.10;;;2.10;;
66607;SDS011;53462;39.616;8.824;2022-09-09T05:38:56;3.60;;;2.00;;
66607;SDS011;53462;39.616;8.824;2022-09-09T05:41:24;9.82;;;2.40;;
66607;SDS011;53462;39.616;8.824;2022-09-09T05:43:53;9.25;;;3.17;;
66607;SDS011;53462;39.616;8.824;2022-09-09T05:46:21;8.55;;;2.00;;
66607;SDS011;53462;39.616;8.824;2022-09-09T05:48:51;4.90;;;1.73;;
66607;SDS011;53462;39.616;8.824;2022-09-09T05:51:24;14.30;;;2.20;;
66607;SDS011;53462;39.616;8.824;2022-09-09T05:53:54;10.10;;;2.50;;
66607;SDS011;53462;39.616;8.824;2022-09-09T05:56:25;8.93;;;2.08;;
66607;SDS011;53462;39.616;8.824;2022-09-09T05:58:52;8.48;;;1.98;;
66607;SDS011;53462;39.616;8.824;2022-09-09T06:03:57;8.32;;;2.05;;
66607;SDS011;53462;39.616;8.824;2022-09-09T06:06:24;3.95;;;1.80;;
66607;SDS011;53462;39.616;8.824;2022-09-09T06:08:54;6.07;;;1.90;;
66607;SDS011;53462;39.616;8.824;2022-09-09T06:11:26;9.40;;;2.30;;
66607;SDS011;53462;39.616;8.824;2022-09-09T06:13:58;10.80;;;2.15;;
66607;SDS011;53462;39.616;8.824;2022-09-09T06:16:25;8.85;;;2.15;;
66607;SDS011;53462;39.616;8.824;2022-09-09T06:18:53;7.57;;;2.30;;
66607;SDS011;53462;39.616;8.824;2022-09-09T06:21:23;6.55;;;2.30;;
66607;SDS011;53462;39.616;8.824;2022-09-09T06:23:51;5.28;;;1.92;;
66607;SDS011;53462;39.616;8.824;2022-09-09T06:26:26;6.40;;;2.00;;
66607;SDS011;53462;39.616;8.824;2022-09-09T06:29:00;8.32;;;2.47;;
66607;SDS011;53462;39.616;8.824;2022-09-09T06:31:30;4.65;;;1.98;;
66607;SDS011;53462;39.616;8.824;2022-09-09T06:34:05;10.80;;;2.13;;
66607;SDS011;53462;39.616;8.824;2022-09-09T06:36:33;11.00;;;2.00;;
66607;SDS011;53462;39.616;8.824;2022-09-09T06:39:02;8.15;;;2.63;;
66607;SDS011;53462;39.616;8.824;2022-09-09T06:41:30;7.53;;;2.00;;
66607;SDS011;53462;39.616;8.824;2022-09-09T06:43:58;8.32;;;2.42;;
66607;SDS011;53462;39.616;8.824;2022-09-09T06:46:40;8.23;;;2.05;;
66607;SDS011;53462;39.616;8.824;2022-09-09T06:49:07;4.95;;;1.75;;
66607;SDS011;53462;39.616;8.824;2022-09-09T06:51:35;3.42;;;1.70;;
66607;SDS011;53462;39.616;8.824;2022-09-09T06:54:09;6.18;;;2.00;;
66607;SDS011;53462;39.616;8.824;2022-09-09T06:56:37;8.55;;;1.80;;
66607;SDS011;53462;39.616;8.824;2022-09-09T06:59:11;7.57;;;2.40;;
66607;SDS011;53462;39.616;8.824;2022-09-09T07:01:39;8.15;;;1.80;;
66607;SDS011;53462;39.616;8.824;2022-09-09T07:04:09;9.57;;;2.22;;
66607;SDS011;53462;39.616;8.824;2022-09-09T07:06:43;8.05;;;2.05;;
66607;SDS011;53462;39.616;8.824;2022-09-09T07:09:15;7.18;;;2.00;;
66607;SDS011;53462;39.616;8.824;2022-09-09T07:11:45;6.15;;;1.80;;
66607;SDS011;53462;39.616;8.824;2022-09-09T07:14:14;4.53;;;1.50;;
66607;SDS011;53462;39.616;8.824;2022-09-09T07:16:44;10.07;;;1.77;;
66607;SDS011;53462;39.616;8.824;2022-09-09T07:19:15;5.80;;;1.55;;
66607;SDS011;53462;39.616;8.824;2022-09-09T07:21:42;4.25;;;1.55;;
66607;SDS011;53462;39.616;8.824;2022-09-09T07:24:11;5.15;;;1.75;;
66607;SDS011;53462;39.616;8.824;2022-09-09T07:26:39;3.17;;;1.75;;
66607;SDS011;53462;39.616;8.824;2022-09-09T07:29:06;7.43;;;1.88;;
66607;SDS011;53462;39.616;8.824;2022-09-09T07:31:33;6.40;;;1.65;;
66607;SDS011;53462;39.616;8.824;2022-09-09T07:34:03;4.18;;;1.48;;
66607;SDS011;53462;39.616;8.824;2022-09-09T07:36:31;5.75;;;1.80;;
66607;SDS011;53462;39.616;8.824;2022-09-09T07:39:00;4.38;;;1.55;;
66607;SDS011;53462;39.616;8.824;2022-09-09T07:41:31;6.97;;;1.90;;
66607;SDS011;53462;39.616;8.824;2022-09-09T07:44:03;7.50;;;1.73;;
66607;SDS011;53462;39.616;8.824;2022-09-09T07:46:33;9.95;;;1.65;;
66607;SDS011;53462;39.616;8.824;2022-09-09T07:49:00;5.20;;;1.70;;
66607;SDS011;53462;39.616;8.824;2022-09-09T07:51:31;7.50;;;1.88;;
66607;SDS011;53462;39.616;8.824;2022-09-09T07:54:01;11.10;;;1.95;;
66607;SDS011;53462;39.616;8.824;2022-09-09T07:56:32;4.63;;;1.65;;
66607;SDS011;53462;39.616;8.824;2022-09-09T07:58:59;13.07;;;1.90;;
66607;SDS011;53462;39.616;8.824;2022-09-09T08:01:36;5.45;;;1.55;;
66607;SDS011;53462;39.616;8.824;2022-09-09T08:04:07;12.80;;;2.00;;
66607;SDS011;53462;39.616;8.824;2022-09-09T08:06:36;6.22;;;2.40;;
66607;SDS011;53462;39.616;8.824;2022-09-09T08:09:05;7.93;;;2.03;;
66607;SDS011;53462;39.616;8.824;2022-09-09T08:11:33;6.65;;;1.73;;
66607;SDS011;53462;39.616;8.824;2022-09-09T08:14:01;6.70;;;1.70;;
66607;SDS011;53462;39.616;8.824;2022-09-09T08:16:30;12.57;;;1.50;;
66607;SDS011;53462;39.616;8.824;2022-09-09T08:18:59;4.03;;;1.35;;
66607;SDS011;53462;39.616;8.824;2022-09-09T08:21:27;5.10;;;1.50;;
66607;SDS011;53462;39.616;8.824;2022-09-09T08:23:56;4.00;;;1.52;;
66607;SDS011;53462;39.616;8.824;2022-09-09T08:26:28;4.43;;;1.67;;
66607;SDS011;53462;39.616;8.824;2022-09-09T08:28:57;4.47;;;1.40;;
66607;SDS011;53462;39.616;8.824;2022-09-09T08:33:56;4.40;;;1.40;;
66607;SDS011;53462;39.616;8.824;2022-09-09T08:36:25;3.88;;;1.45;;
66607;SDS011;53462;39.616;8.824;2022-09-09T08:38:54;39.00;;;3.42;;
66607;SDS011;53462;39.616;8.824;2022-09-09T08:52:27;6.05;;;1.77;;
66607;SDS011;53462;39.616;8.824;2022-09-09T08:54:56;3.53;;;1.25;;
66607;SDS011;53462;39.616;8.824;2022-09-09T08:57:43;10.77;;;2.00;;
66607;SDS011;53462;39.616;8.824;2022-09-09T09:00:11;3.38;;;1.20;;
66607;SDS011;53462;39.616;8.824;2022-09-09T09:02:42;15.98;;;1.83;;
66607;SDS011;53462;39.616;8.824;2022-09-09T09:05:31;5.50;;;1.90;;
66607;SDS011;53462;39.616;8.824;2022-09-09T09:10:51;6.65;;;1.42;;
66607;SDS011;53462;39.616;8.824;2022-09-09T09:16:29;5.05;;;1.30;;
66607;SDS011;53462;39.616;8.824;2022-09-09T09:19:02;4.13;;;1.63;;
66607;SDS011;53462;39.616;8.824;2022-09-09T09:21:36;2.75;;;1.30;;
66607;SDS011;53462;39.616;8.824;2022-09-09T09:24:18;6.47;;;1.38;;
66607;SDS011;53462;39.616;8.824;2022-09-09T09:27:57;5.72;;;1.48;;
66607;SDS011;53462;39.616;8.824;2022-09-09T09:29:58;5.65;;;1.70;;
66607;SDS011;53462;39.616;8.824;2022-09-09T09:32:27;6.32;;;2.67;;
66607;SDS011;53462;39.616;8.824;2022-09-09T09:34:56;2.90;;;1.40;;
66607;SDS011;53462;39.616;8.824;2022-09-09T09:37:31;4.35;;;1.45;;
66607;SDS011;53462;39.616;8.824;2022-09-09T09:40:19;4.15;;;1.40;;
66607;SDS011;53462;39.616;8.824;2022-09-09T09:43:16;5.00;;;0.93;;
66607;SDS011;53462;39.616;8.824;2022-09-09T09:45:45;5.38;;;1.20;;
66607;SDS011;53462;39.616;8.824;2022-09-09T09:48:12;6.28;;;1.20;;
66607;SDS011;53462;39.616;8.824;2022-09-09T09:53:23;3.40;;;0.95;;
66607;SDS011;53462;39.616;8.824;2022-09-09T09:56:05;5.10;;;1.20;;
66607;SDS011;53462;39.616;8.824;2022-09-09T09:58:38;1.90;;;0.90;;
66607;SDS011;53462;39.616;8.824;2022-09-09T10:03:53;3.28;;;0.88;;
66607;SDS011;53462;39.616;8.824;2022-09-09T10:06:56;3.10;;;1.10;;
66607;SDS011;53462;39.616;8.824;2022-09-09T10:09:26;1.77;;;0.80;;
66607;SDS011;53462;39.616;8.824;2022-09-09T10:11:55;2.83;;;1.05;;
66607;SDS011;53462;39.616;8.824;2022-09-09T10:22:52;3.25;;;0.90;;
66607;SDS011;53462;39.616;8.824;2022-09-09T10:36:20;3.63;;;1.10;;
66607;SDS011;53462;39.616;8.824;2022-09-09T10:38:59;2.33;;;0.90;;
66607;SDS011;53462;39.616;8.824;2022-09-09T10:47:25;4.78;;;1.10;;
66607;SDS011;53462;39.616;8.824;2022-09-09T10:50:18;2.20;;;0.90;;
66607;SDS011;53462;39.616;8.824;2022-09-09T10:53:22;5.65;;;1.15;;
66607;SDS011;53462;39.616;8.824;2022-09-09T10:56:03;2.28;;;0.90;;
66607;SDS011;53462;39.616;8.824;2022-09-09T11:01:28;2.95;;;0.80;;
66607;SDS011;53462;39.616;8.824;2022-09-09T11:04:03;4.30;;;1.42;;
66607;SDS011;53462;39.616;8.824;2022-09-09T11:06:48;4.95;;;0.90;;
66607;SDS011;53462;39.616;8.824;2022-09-09T11:09:20;2.42;;;1.00;;
66607;SDS011;53462;39.616;8.824;2022-09-09T11:11:55;4.40;;;1.10;;
66607;SDS011;53462;39.616;8.824;2022-09-09T11:14:26;4.97;;;0.85;;
66607;SDS011;53462;39.616;8.824;2022-09-09T11:17:11;7.85;;;1.17;;
66607;SDS011;53462;39.616;8.824;2022-09-09T11:19:41;3.17;;;0.80;;
66607;SDS011;53462;39.616;8.824;2022-09-09T11:22:29;2.95;;;0.80;;
66607;SDS011;53462;39.616;8.824;2022-09-09T11:25:18;3.90;;;0.75;;
66607;SDS011;53462;39.616;8.824;2022-09-09T11:33:23;5.22;;;1.00;;
66607;SDS011;53462;39.616;8.824;2022-09-09T11:39:02;2.38;;;0.80;;
66607;SDS011;53462;39.616;8.824;2022-09-09T11:41:50;2.45;;;0.77;;
66607;SDS011;53462;39.616;8.824;2022-09-09T11:44:17;2.40;;;0.73;;
66607;SDS011;53462;39.616;8.824;2022-09-09T11:46:51;2.25;;;0.70;;
66607;SDS011;53462;39.616;8.824;2022-09-09T11:50:06;2.75;;;0.80;;
66607;SDS011;53462;39.616;8.824;2022-09-09T11:52:10;3.00;;;0.70;;
66607;SDS011;53462;39.616;8.824;2022-09-09T11:54:49;2.30;;;0.65;;
66607;SDS011;53462;39.616;8.824;2022-09-09T11:59:53;2.45;;;0.95;;
66607;SDS011;53462;39.616;8.824;2022-09-09T12:02:23;1.63;;;0.60;;
66607;SDS011;53462;39.616;8.824;2022-09-09T12:04:56;2.20;;;1.10;;
66607;SDS011;53462;39.616;8.824;2022-09-09T12:12:23;0.88;;;0.63;;
66607;SDS011;53462;39.616;8.824;2022-09-09T12:17:43;1.58;;;0.60;;
66607;SDS011;53462;39.616;8.824;2022-09-09T12:22:55;1.98;;;0.63;;
66607;SDS011;53462;39.616;8.824;2022-09-09T12:28:22;4.57;;;0.68;;
66607;SDS011;53462;39.616;8.824;2022-09-09T12:33:53;3.25;;;0.70;;
66607;SDS011;53462;39.616;8.824;2022-09-09T12:36:27;1.77;;;0.70;;
66607;SDS011;53462;39.616;8.824;2022-09-09T12:38:58;6.15;;;0.93;;
66607;SDS011;53462;39.616;8.824;2022-09-09T12:41:36;5.30;;;0.63;;
66607;SDS011;53462;39.616;8.824;2022-09-09T12:44:05;2.17;;;0.50;;
66607;SDS011;53462;39.616;8.824;2022-09-09T12:49:02;4.35;;;0.85;;
66607;SDS011;53462;39.616;8.824;2022-09-09T12:51:30;1.25;;;0.60;;
66607;SDS011;53462;39.616;8.824;2022-09-09T12:53:57;1.55;;;0.65;;
66607;SDS011;53462;39.616;8.824;2022-09-09T12:56:33;1.23;;;0.57;;
66607;SDS011;53462;39.616;8.824;2022-09-09T12:59:01;1.48;;;0.60;;
66607;SDS011;53462;39.616;8.824;2022-09-09T13:01:27;1.92;;;0.60;;
66607;SDS011;53462;39.616;8.824;2022-09-09T13:03:56;1.75;;;0.60;;
66607;SDS011;53462;39.616;8.824;2022-09-09T13:06:26;2.17;;;0.68;;
66607;SDS011;53462;39.616;8.824;2022-09-09T13:08:54;3.30;;;0.73;;
66607;SDS011;53462;39.616;8.824;2022-09-09T13:11:29;3.58;;;1.10;;
66607;SDS011;53462;39.616;8.824;2022-09-09T13:14:02;2.13;;;0.57;;
66607;SDS011;53462;39.616;8.824;2022-09-09T13:16:29;4.78;;;0.70;;
66607;SDS011;53462;39.616;8.824;2022-09-09T13:19:00;2.55;;;0.88;;
66607;SDS011;53462;39.616;8.824;2022-09-09T13:24:03;2.83;;;0.60;;
66607;SDS011;53462;39.616;8.824;2022-09-09T13:26:35;2.20;;;0.70;;
66607;SDS011;53462;39.616;8.824;2022-09-09T13:29:15;2.78;;;0.80;;
66607;SDS011;53462;39.616;8.824;2022-09-09T13:31:45;4.03;;;0.95;;
66607;SDS011;53462;39.616;8.824;2022-09-09T13:34:12;2.60;;;0.55;;
66607;SDS011;53462;39.616;8.824;2022-09-09T13:36:39;2.20;;;0.82;;
66607;SDS011;53462;39.616;8.824;2022-09-09T13:39:14;9.80;;;1.10;;
66607;SDS011;53462;39.616;8.824;2022-09-09T13:41:43;2.67;;;1.17;;
66607;SDS011;53462;39.616;8.824;2022-09-09T13:44:20;2.88;;;0.63;;
66607;SDS011;53462;39.616;8.824;2022-09-09T13:46:59;5.25;;;0.65;;
66607;SDS011;53462;39.616;8.824;2022-09-09T13:49:28;4.07;;;0.60;;
66607;SDS011;53462;39.616;8.824;2022-09-09T13:54:50;1.70;;;0.60;;
66607;SDS011;53462;39.616;8.824;2022-09-09T13:57:18;2.67;;;0.80;;
66607;SDS011;53462;39.616;8.824;2022-09-09T13:59:46;2.55;;;0.65;;
66607;SDS011;53462;39.616;8.824;2022-09-09T14:02:13;3.60;;;0.63;;
66607;SDS011;53462;39.616;8.824;2022-09-09T14:04:40;3.78;;;1.02;;
66607;SDS011;53462;39.616;8.824;2022-09-09T14:07:09;1.52;;;0.52;;
66607;SDS011;53462;39.616;8.824;2022-09-09T14:09:38;1.20;;;0.63;;
66607;SDS011;53462;39.616;8.824;2022-09-09T14:12:05;1.67;;;0.60;;
66607;SDS011;53462;39.616;8.824;2022-09-09T14:14:36;1.20;;;0.60;;
66607;SDS011;53462;39.616;8.824;2022-09-09T14:17:02;3.13;;;0.70;;
66607;SDS011;53462;39.616;8.824;2022-09-09T14:19:29;2.78;;;0.70;;
66607;SDS011;53462;39.616;8.824;2022-09-09T14:21:56;1.98;;;0.60;;
66607;SDS011;53462;39.616;8.824;2022-09-09T14:24:22;7.10;;;0.85;;
66607;SDS011;53462;39.616;8.824;2022-09-09T14:26:48;1.98;;;0.60;;
66607;SDS011;53462;39.616;8.824;2022-09-09T14:29:14;2.05;;;0.70;;
66607;SDS011;53462;39.616;8.824;2022-09-09T14:31:40;1.30;;;0.65;;
66607;SDS011;53462;39.616;8.824;2022-09-09T14:34:06;2.78;;;0.50;;
66607;SDS011;53462;39.616;8.824;2022-09-09T14:36:33;1.10;;;0.50;;
66607;SDS011;53462;39.616;8.824;2022-09-09T14:38:58;1.98;;;0.60;;
66607;SDS011;53462;39.616;8.824;2022-09-09T14:41:24;1.48;;;0.60;;
66607;SDS011;53462;39.616;8.824;2022-09-09T14:43:50;1.83;;;0.63;;
66607;SDS011;53462;39.616;8.824;2022-09-09T14:46:18;2.67;;;0.50;;
66607;SDS011;53462;39.616;8.824;2022-09-09T14:48:45;1.40;;;0.60;;
66607;SDS011;53462;39.616;8.824;2022-09-09T14:51:17;2.10;;;0.57;;
66607;SDS011;53462;39.616;8.824;2022-09-09T14:53:45;0.93;;;0.40;;
66607;SDS011;53462;39.616;8.824;2022-09-09T14:56:16;5.18;;;0.70;;
66607;SDS011;53462;39.616;8.824;2022-09-09T14:58:44;3.20;;;0.60;;
66607;SDS011;53462;39.616;8.824;2022-09-09T15:04:51;1.08;;;0.60;;
66607;SDS011;53462;39.616;8.824;2022-09-09T15:07:18;1.35;;;0.60;;
66607;SDS011;53462;39.616;8.824;2022-09-09T15:09:44;5.03;;;0.60;;
66607;SDS011;53462;39.616;8.824;2022-09-09T15:12:12;2.10;;;0.50;;
66607;SDS011;53462;39.616;8.824;2022-09-09T15:14:39;1.45;;;0.60;;
66607;SDS011;53462;39.616;8.824;2022-09-09T15:17:05;2.17;;;0.65;;
66607;SDS011;53462;39.616;8.824;2022-09-09T15:19:31;4.53;;;0.60;;
66607;SDS011;53462;39.616;8.824;2022-09-09T15:21:57;1.35;;;0.60;;
66607;SDS011;53462;39.616;8.824;2022-09-09T15:24:25;1.20;;;0.50;;
66607;SDS011;53462;39.616;8.824;2022-09-09T15:26:51;3.42;;;0.82;;
66607;SDS011;53462;39.616;8.824;2022-09-09T15:29:19;1.75;;;0.60;;
66607;SDS011;53462;39.616;8.824;2022-09-09T15:31:45;3.08;;;0.90;;
66607;SDS011;53462;39.616;8.824;2022-09-09T15:34:11;5.43;;;0.60;;
66607;SDS011;53462;39.616;8.824;2022-09-09T15:36:39;2.47;;;0.82;;
66607;SDS011;53462;39.616;8.824;2022-09-09T15:39:08;1.80;;;0.55;;
66607;SDS011;53462;39.616;8.824;2022-09-09T15:41:43;2.30;;;0.60;;
66607;SDS011;53462;39.616;8.824;2022-09-09T15:44:10;2.50;;;0.70;;
66607;SDS011;53462;39.616;8.824;2022-09-09T15:46:50;2.47;;;0.60;;
66607;SDS011;53462;39.616;8.824;2022-09-09T15:49:19;2.78;;;0.65;;
66607;SDS011;53462;39.616;8.824;2022-09-09T15:51:54;6.25;;;1.00;;
66607;SDS011;53462;39.616;8.824;2022-09-09T15:54:23;1.40;;;0.50;;
66607;SDS011;53462;39.616;8.824;2022-09-09T15:56:51;1.90;;;0.60;;
66607;SDS011;53462;39.616;8.824;2022-09-09T15:59:24;1.35;;;0.60;;
66607;SDS011;53462;39.616;8.824;2022-09-09T16:01:53;2.17;;;0.60;;
66607;SDS011;53462;39.616;8.824;2022-09-09T16:04:20;2.10;;;0.70;;
66607;SDS011;53462;39.616;8.824;2022-09-09T16:06:53;2.00;;;0.63;;
66607;SDS011;53462;39.616;8.824;2022-09-09T16:09:25;4.50;;;0.60;;
66607;SDS011;53462;39.616;8.824;2022-09-09T16:11:52;3.05;;;0.70;;
66607;SDS011;53462;39.616;8.824;2022-09-09T16:14:21;2.00;;;0.60;;
66607;SDS011;53462;39.616;8.824;2022-09-09T16:16:47;1.70;;;0.55;;
66607;SDS011;53462;39.616;8.824;2022-09-09T16:19:13;3.30;;;0.70;;
66607;SDS011;53462;39.616;8.824;2022-09-09T16:21:41;3.13;;;0.63;;
66607;SDS011;53462;39.616;8.824;2022-09-09T16:24:09;5.47;;;0.80;;
66607;SDS011;53462;39.616;8.824;2022-09-09T16:26:37;3.67;;;0.63;;
66607;SDS011;53462;39.616;8.824;2022-09-09T16:29:05;2.50;;;0.77;;
66607;SDS011;53462;39.616;8.824;2022-09-09T16:31:31;2.95;;;0.68;;
66607;SDS011;53462;39.616;8.824;2022-09-09T16:33:57;3.45;;;0.60;;
66607;SDS011;53462;39.616;8.824;2022-09-09T16:36:24;4.35;;;0.65;;
66607;SDS011;53462;39.616;8.824;2022-09-09T16:38:55;2.85;;;0.60;;
66607;SDS011;53462;39.616;8.824;2022-09-09T16:41:26;5.20;;;0.98;;
66607;SDS011;53462;39.616;8.824;2022-09-09T16:46:20;3.63;;;0.85;;
66607;SDS011;53462;39.616;8.824;2022-09-09T16:48:47;2.03;;;0.70;;
66607;SDS011;53462;39.616;8.824;2022-09-09T16:51:24;1.73;;;0.60;;
66607;SDS011;53462;39.616;8.824;2022-09-09T16:53:52;5.75;;;0.80;;
66607;SDS011;53462;39.616;8.824;2022-09-09T16:56:22;3.45;;;0.70;;
66607;SDS011;53462;39.616;8.824;2022-09-09T16:58:53;2.90;;;0.70;;
66607;SDS011;53462;39.616;8.824;2022-09-09T17:01:21;1.83;;;0.63;;
66607;SDS011;53462;39.616;8.824;2022-09-09T17:03:52;5.50;;;0.70;;
66607;SDS011;53462;39.616;8.824;2022-09-09T17:06:22;1.58;;;0.60;;
66607;SDS011;53462;39.616;8.824;2022-09-09T17:08:53;2.10;;;0.70;;
66607;SDS011;53462;39.616;8.824;2022-09-09T17:11:20;2.55;;;0.75;;
66607;SDS011;53462;39.616;8.824;2022-09-09T17:13:46;2.38;;;0.77;;
66607;SDS011;53462;39.616;8.824;2022-09-09T17:16:15;1.13;;;0.60;;
66607;SDS011;53462;39.616;8.824;2022-09-09T17:18:42;2.60;;;0.70;;
66607;SDS011;53462;39.616;8.824;2022-09-09T17:21:11;2.47;;;0.80;;
66607;SDS011;53462;39.616;8.824;2022-09-09T17:23:39;2.28;;;0.80;;
66607;SDS011;53462;39.616;8.824;2022-09-09T17:26:06;2.25;;;1.17;;